Time;durP1;ratioP1;P1;durP2;ratioP2;P2;SDS_P1;SDS_P2;PMS_P1;PMS_P2;Temp;Humidity;BMP_temperature;BMP_pressure;BME280_temperature;BME280_humidity;BME280_pressure;Samples;Min_cycle;Max_cycle;Signal;HPM_P1;HPM_P2
2024/02/29 00:03:53;;;;;;;0.70;0.70;;;6.40;98.30;;;;;;10476637;28;20637;-77
2024/02/29 00:08:57;;;;;;;0.70;0.70;;;6.40;98.10;;;;;;10494548;28;20193;-77
2024/02/29 00:13:59;;;;;;;0.70;0.70;;;6.40;98.10;;;;;;10494361;28;20759;-77
2024/02/29 00:19:02;;;;;;;0.63;0.63;;;6.40;98.00;;;;;;10493925;28;20270;-77
2024/02/29 00:24:05;;;;;;;0.80;0.80;;;6.40;98.00;;;;;;10481946;28;20251;-79
2024/02/29 00:29:08;;;;;;;0.60;0.60;;;6.30;98.40;;;;;;10493565;28;20193;-77
2024/02/29 00:34:10;;;;;;;0.60;0.60;;;6.30;98.10;;;;;;10493318;28;20229;-77
2024/02/29 00:39:14;;;;;;;0.73;0.73;;;6.30;97.90;;;;;;10487946;28;20228;-77
2024/02/29 00:44:16;;;;;;;0.50;0.50;;;6.20;97.70;;;;;;10475381;28;20701;-77
2024/02/29 00:49:19;;;;;;;0.60;0.60;;;6.20;97.70;;;;;;10492638;28;20212;-77
2024/02/29 00:54:24;;;;;;;0.50;0.50;;;6.20;97.70;;;;;;10492429;28;20219;-80
2024/02/29 00:59:26;;;;;;;0.63;0.63;;;6.20;97.50;;;;;;10492468;28;20216;-77
2024/02/29 01:04:29;;;;;;;0.50;0.50;;;6.10;97.60;;;;;;10492497;28;20213;-78
2024/02/29 01:09:32;;;;;;;0.50;0.50;;;6.00;97.80;;;;;;10491998;28;20262;-78
2024/02/29 01:14:35;;;;;;;0.50;0.50;;;6.00;97.80;;;;;;10491259;28;20289;-77
2024/02/29 01:19:37;;;;;;;0.50;0.50;;;5.90;97.80;;;;;;10492037;28;20639;-78
2024/02/29 01:24:41;;;;;;;0.60;0.60;;;5.90;98.00;;;;;;10491431;28;20212;-80
2024/02/29 01:29:43;;;;;;;0.60;0.60;;;5.90;97.90;;;;;;10490776;28;20571;-77
2024/02/29 01:34:46;;;;;;;0.60;0.60;;;5.80;98.10;;;;;;10491493;28;20316;-80
2024/02/29 01:39:50;;;;;;;0.60;0.60;;;5.80;98.20;;;;;;10473278;28;20394;-77
2024/02/29 01:44:54;;;;;;;0.60;0.60;;;5.80;98.40;;;;;;10491004;28;20223;-78
2024/02/29 01:49:59;;;;;;;0.50;0.50;;;5.90;97.90;;;;;;10485795;28;20232;-78
2024/02/29 01:55:03;;;;;;;0.60;0.60;;;5.80;97.80;;;;;;10491130;28;20636;-77
2024/02/29 02:00:08;;;;;;;0.53;0.53;;;5.80;97.60;;;;;;10488261;28;20223;-77
2024/02/29 02:05:11;;;;;;;0.50;0.50;;;5.80;97.70;;;;;;10487611;28;20220;-77
2024/02/29 02:10:15;;;;;;;0.50;0.50;;;5.70;97.80;;;;;;10490773;28;20185;-77
2024/02/29 02:15:17;;;;;;;0.50;0.50;;;5.70;97.60;;;;;;10490735;28;20724;-77
2024/02/29 02:20:21;;;;;;;0.67;0.67;;;5.70;97.70;;;;;;10490830;28;20224;-77
2024/02/29 02:25:23;;;;;;;0.63;0.63;;;5.60;97.70;;;;;;10470636;28;20757;-77
2024/02/29 02:30:26;;;;;;;0.50;0.50;;;5.60;97.80;;;;;;10490494;28;20223;-75
2024/02/29 02:35:29;;;;;;;0.50;0.50;;;5.50;98.20;;;;;;10473273;28;20531;-77
2024/02/29 02:40:32;;;;;;;0.60;0.60;;;5.50;98.10;;;;;;10495050;28;20693;-77
2024/02/29 02:45:34;;;;;;;0.57;0.57;;;5.50;97.90;;;;;;10497575;28;20278;-76
2024/02/29 02:50:38;;;;;;;0.60;0.60;;;5.50;97.70;;;;;;10497064;28;20192;-77
2024/02/29 02:55:40;;;;;;;0.50;0.50;;;5.50;97.80;;;;;;10497462;28;20212;-77
2024/02/29 03:00:42;;;;;;;0.60;0.60;;;5.50;97.70;;;;;;10492453;28;20756;-76
2024/02/29 03:05:46;;;;;;;0.50;0.50;;;5.40;98.00;;;;;;10496935;28;20224;-80
2024/02/29 03:10:48;;;;;;;0.50;0.50;;;5.40;97.80;;;;;;10496634;28;20204;-78
2024/02/29 03:15:51;;;;;;;0.43;0.43;;;5.40;97.80;;;;;;10496473;28;20220;-77
2024/02/29 03:20:54;;;;;;;0.40;0.40;;;5.30;97.70;;;;;;10493968;28;20630;-78
2024/02/29 03:25:57;;;;;;;0.50;0.50;;;5.30;97.60;;;;;;10496183;28;20219;-77
2024/02/29 03:31:00;;;;;;;0.50;0.50;;;5.20;97.60;;;;;;10495930;28;20200;-79
2024/02/29 03:36:04;;;;;;;0.50;0.50;;;5.20;97.70;;;;;;10495738;28;20701;-77
2024/02/29 03:41:07;;;;;;;0.40;0.40;;;5.10;97.80;;;;;;10495235;28;20220;-77
2024/02/29 03:46:10;;;;;;;0.40;0.40;;;5.10;98.20;;;;;;10495163;28;20201;-78
2024/02/29 03:51:15;;;;;;;0.57;0.57;;;5.10;98.30;;;;;;10494975;28;20189;-77
2024/02/29 03:56:17;;;;;;;0.53;0.53;;;5.10;98.30;;;;;;10495528;28;20189;-76
2024/02/29 04:01:19;;;;;;;0.50;0.50;;;5.10;98.30;;;;;;10494916;28;20242;-80
2024/02/29 04:06:23;;;;;;;0.50;0.50;;;5.10;98.10;;;;;;10494242;28;20208;-78
2024/02/29 04:11:25;;;;;;;0.50;0.50;;;5.20;97.70;;;;;;10476467;28;20246;-77
2024/02/29 04:16:28;;;;;;;0.50;0.50;;;5.10;97.60;;;;;;10494188;28;20270;-78
2024/02/29 04:21:32;;;;;;;0.57;0.57;;;5.00;97.80;;;;;;10476740;28;20216;-78
2024/02/29 04:26:34;;;;;;;0.70;0.70;;;5.00;97.90;;;;;;10489157;28;20286;-77
2024/02/29 04:31:37;;;;;;;0.60;0.60;;;5.00;97.50;;;;;;10493840;28;20216;-77
2024/02/29 04:36:40;;;;;;;0.60;0.60;;;5.00;97.60;;;;;;10475583;28;20759;-77
2024/02/29 04:41:44;;;;;;;0.60;0.60;;;5.00;97.70;;;;;;10493270;28;20273;-77
2024/02/29 04:46:46;;;;;;;0.60;0.60;;;4.90;97.70;;;;;;10492661;28;20200;-78
2024/02/29 04:51:50;;;;;;;0.50;0.50;;;4.90;97.80;;;;;;10474638;28;20209;-78
2024/02/29 04:56:52;;;;;;;0.50;0.50;;;4.90;97.70;;;;;;10489413;28;20286;-78
2024/02/29 05:01:54;;;;;;;0.60;0.60;;;4.90;97.60;;;;;;10470559;28;20213;-77
2024/02/29 05:06:58;;;;;;;0.50;0.50;;;4.90;97.60;;;;;;10470914;28;20192;-76
2024/02/29 05:12:01;;;;;;;0.50;0.50;;;4.90;97.60;;;;;;10492735;28;20216;-75
2024/02/29 05:17:03;;;;;;;0.50;0.50;;;4.80;97.50;;;;;;10491689;28;20201;-75
2024/02/29 05:22:07;;;;;;;0.50;0.50;;;4.80;97.60;;;;;;10491889;28;20224;-76
2024/02/29 05:27:09;;;;;;;0.50;0.50;;;4.80;97.60;;;;;;10490263;28;20217;-76
2024/02/29 05:32:11;;;;;;;0.60;0.60;;;4.70;97.70;;;;;;10485126;28;20266;-74
2024/02/29 05:37:15;;;;;;;0.50;0.50;;;4.70;97.80;;;;;;10486314;28;20217;-75
2024/02/29 05:42:17;;;;;;;0.50;0.50;;;4.70;97.60;;;;;;10491277;28;20270;-75
2024/02/29 05:47:20;;;;;;;0.50;0.50;;;4.80;97.40;;;;;;10490300;28;20254;-75
2024/02/29 05:52:23;;;;;;;0.40;0.40;;;4.70;97.50;;;;;;10491176;28;20698;-73
2024/02/29 05:57:30;;;;;;;0.40;0.40;;;4.70;97.90;;;;;;10490316;28;20314;-75
2024/02/29 06:02:32;;;;;;;0.50;0.50;;;4.70;97.70;;;;;;10490659;28;20228;-75
2024/02/29 06:07:36;;;;;;;0.40;0.40;;;4.70;97.70;;;;;;10490765;28;20208;-75
2024/02/29 06:12:40;;;;;;;0.40;0.40;;;4.60;97.40;;;;;;10486082;28;20235;-76
2024/02/29 06:17:43;;;;;;;0.30;0.30;;;4.60;97.40;;;;;;10475451;28;20192;-75
2024/02/29 06:22:47;;;;;;;0.40;0.40;;;4.60;97.60;;;;;;10478464;28;20217;-74
2024/02/29 06:27:50;;;;;;;0.30;0.30;;;4.60;97.90;;;;;;10467074;28;20193;-75
2024/02/29 06:32:52;;;;;;;0.30;0.30;;;4.60;97.80;;;;;;10470855;28;20209;-75
2024/02/29 06:37:56;;;;;;;0.60;0.60;;;4.60;97.80;;;;;;10469619;28;20220;-75
2024/02/29 06:42:59;;;;;;;0.70;0.70;;;4.70;98.10;;;;;;10459248;28;20756;-75
2024/02/29 06:48:01;;;;;;;0.60;0.60;;;4.80;98.10;;;;;;10483901;28;20196;-75
2024/02/29 06:53:05;;;;;;;0.60;0.60;;;4.80;97.90;;;;;;10484012;28;20224;-75
2024/02/29 06:58:07;;;;;;;0.70;0.70;;;4.90;97.90;;;;;;10472048;28;20193;-76
2024/02/29 07:03:09;;;;;;;0.70;0.70;;;4.90;98.00;;;;;;10497472;28;20227;-76
2024/02/29 07:08:13;;;;;;;0.70;0.70;;;5.00;98.20;;;;;;10496749;28;20613;-75
2024/02/29 07:13:16;;;;;;;0.60;0.60;;;5.10;98.30;;;;;;10496244;28;20725;-75
2024/02/29 07:18:18;;;;;;;0.60;0.60;;;5.10;98.50;;;;;;10496825;28;20204;-75
2024/02/29 07:23:23;;;;;;;0.67;0.67;;;5.30;98.70;;;;;;10496397;28;20216;-75
2024/02/29 07:28:25;;;;;;;0.60;0.60;;;5.40;98.80;;;;;;10494492;28;20602;-75
2024/02/29 07:33:28;;;;;;;0.50;0.50;;;5.50;98.80;;;;;;10496087;28;20216;-74
2024/02/29 07:38:32;;;;;;;0.70;0.70;;;5.60;98.80;;;;;;10496195;28;20196;-76
2024/02/29 07:43:34;;;;;;;0.60;0.60;;;5.70;98.60;;;;;;10495897;28;20221;-76
2024/02/29 07:48:37;;;;;;;0.50;0.50;;;5.80;98.80;;;;;;10495206;28;20200;-74
2024/02/29 07:53:41;;;;;;;0.60;0.60;;;6.00;98.50;;;;;;10495274;28;20212;-75
2024/02/29 07:58:43;;;;;;;0.50;0.50;;;6.10;98.70;;;;;;10476540;28;20197;-75
2024/02/29 08:03:45;;;;;;;0.60;0.60;;;6.20;98.90;;;;;;10494900;28;20270;-76
2024/02/29 08:08:49;;;;;;;0.40;0.40;;;6.30;98.60;;;;;;10476728;28;20212;-75
2024/02/29 08:13:51;;;;;;;0.47;0.47;;;6.40;98.80;;;;;;10493781;28;20569;-76
2024/02/29 08:18:54;;;;;;;0.50;0.50;;;6.60;98.60;;;;;;10494087;28;20201;-76
2024/02/29 08:23:57;;;;;;;0.50;0.50;;;6.70;98.60;;;;;;10493649;28;20837;-76
2024/02/29 08:29:00;;;;;;;0.50;0.50;;;6.80;98.40;;;;;;10475634;28;20192;-74
2024/02/29 08:34:02;;;;;;;0.50;0.50;;;6.90;98.30;;;;;;10493436;28;20479;-75
2024/02/29 08:39:06;;;;;;;0.40;0.40;;;7.00;98.30;;;;;;10493241;28;20184;-77
2024/02/29 08:44:08;;;;;;;0.50;0.50;;;7.10;98.50;;;;;;10492865;28;20251;-74
2024/02/29 08:49:11;;;;;;;0.40;0.40;;;7.30;98.30;;;;;;10492494;28;20715;-75
2024/02/29 08:54:15;;;;;;;0.40;0.40;;;7.40;98.30;;;;;;10489716;28;20220;-78
2024/02/29 08:59:17;;;;;;;0.43;0.43;;;7.60;97.90;;;;;;10491802;28;20204;-75
2024/02/29 09:04:20;;;;;;;0.40;0.40;;;7.70;97.70;;;;;;10477079;28;20216;-75
2024/02/29 09:09:23;;;;;;;0.40;0.40;;;7.80;97.60;;;;;;10491861;28;20204;-75
2024/02/29 09:14:26;;;;;;;0.40;0.40;;;7.90;97.10;;;;;;10491584;28;20693;-76
2024/02/29 09:19:28;;;;;;;0.40;0.40;;;8.00;97.50;;;;;;10488689;28;20548;-76
2024/02/29 09:24:32;;;;;;;0.30;0.30;;;8.10;97.50;;;;;;10489545;28;20331;-76
2024/02/29 09:29:34;;;;;;;0.40;0.40;;;8.30;97.20;;;;;;10490414;28;20204;-75
2024/02/29 09:34:37;;;;;;;0.40;0.40;;;8.30;97.30;;;;;;10472389;28;20216;-75
2024/02/29 09:39:41;;;;;;;0.40;0.40;;;8.40;97.30;;;;;;10490626;28;20224;-75
2024/02/29 09:44:44;;;;;;;0.40;0.40;;;8.60;97.10;;;;;;10490576;28;20216;-75
2024/02/29 09:49:47;;;;;;;0.40;0.40;;;8.70;97.00;;;;;;10489412;28;20669;-75
2024/02/29 09:54:51;;;;;;;0.30;0.30;;;8.80;96.80;;;;;;10472537;28;20220;-76
2024/02/29 09:59:53;;;;;;;0.30;0.30;;;8.90;97.00;;;;;;10489710;28;20215;-76
2024/02/29 10:04:56;;;;;;;0.40;0.40;;;9.00;96.90;;;;;;10490080;28;20208;-77
2024/02/29 10:10:00;;;;;;;0.30;0.30;;;9.10;96.80;;;;;;10472216;28;20274;-77
2024/02/29 10:15:04;;;;;;;0.40;0.40;;;9.20;96.80;;;;;;10488017;28;20224;-76
2024/02/29 10:20:08;;;;;;;0.40;0.40;;;9.30;97.10;;;;;;10478045;28;20739;-76
2024/02/29 10:25:14;;;;;;;0.40;0.40;;;9.30;97.10;;;;;;10489553;28;20225;-76
2024/02/29 10:30:18;;;;;;;0.40;0.40;;;9.40;97.00;;;;;;10489687;28;20216;-77
2024/02/29 10:35:22;;;;;;;0.40;0.40;;;9.50;97.00;;;;;;10486985;28;20224;-77
2024/02/29 10:40:26;;;;;;;0.40;0.40;;;9.50;96.60;;;;;;10469007;28;20247;-75
2024/02/29 10:45:29;;;;;;;0.40;0.40;;;9.60;96.70;;;;;;10475076;28;20530;-77
2024/02/29 10:50:44;;;;;;;0.40;0.40;;;9.60;96.70;;;;;;10476330;28;20196;-76
2024/02/29 10:55:50;;;;;;;0.37;0.37;;;9.60;96.80;;;;;;10485952;28;20790;-76
2024/02/29 11:00:53;;;;;;;0.40;0.40;;;9.60;97.00;;;;;;10490960;28;20277;-77
2024/02/29 11:05:56;;;;;;;0.40;0.40;;;9.70;96.70;;;;;;10496897;28;20232;-76
2024/02/29 11:11:00;;;;;;;0.40;0.40;;;9.80;96.80;;;;;;10492142;28;20673;-76
2024/02/29 11:16:03;;;;;;;0.40;0.40;;;9.80;96.70;;;;;;10553457;22;20238;-78
2024/02/29 11:21:06;;;;;;;0.50;0.50;;;9.80;96.90;;;;;;10544540;28;20292;-79
2024/02/29 11:26:10;;;;;;;0.40;0.40;;;9.90;96.90;;;;;;10539918;28;20219;-81
2024/02/29 11:31:15;;;;;;;0.40;0.40;;;9.90;96.90;;;;;;10540465;28;20661;-79
2024/02/29 11:36:19;;;;;;;0.40;0.40;;;10.00;96.20;;;;;;10539204;28;20742;-80
2024/02/29 11:41:23;;;;;;;0.40;0.40;;;10.00;95.50;;;;;;10540508;28;20219;-80
2024/02/29 11:46:26;;;;;;;0.20;0.20;;;10.10;95.40;;;;;;10539351;28;20645;-80
2024/02/29 11:51:29;;;;;;;0.20;0.20;;;10.10;95.00;;;;;;10539826;28;20196;-79
2024/02/29 11:56:33;;;;;;;0.23;0.23;;;10.20;94.90;;;;;;10534866;28;20301;-79
2024/02/29 12:01:35;;;;;;;0.30;0.30;;;10.20;94.90;;;;;;10539741;28;20228;-81
2024/02/29 12:06:40;;;;;;;0.30;0.30;;;10.30;94.80;;;;;;10539039;28;20257;-81
2024/02/29 12:11:45;;;;;;;0.30;0.30;;;10.30;94.90;;;;;;10538939;28;20204;-81
2024/02/29 12:16:48;;;;;;;0.20;0.20;;;10.50;94.20;;;;;;10540912;28;20746;-78
2024/02/29 12:21:50;;;;;;;0.20;0.20;;;10.60;93.80;;;;;;10547062;28;20226;-80
2024/02/29 12:26:54;;;;;;;0.20;0.20;;;10.70;93.40;;;;;;10539367;28;20257;-81
2024/02/29 12:31:59;;;;;;;0.30;0.30;;;10.80;92.60;;;;;;10519426;28;20223;-80
2024/02/29 12:37:01;;;;;;;0.20;0.20;;;10.90;91.90;;;;;;10520691;28;20200;-77
2024/02/29 12:42:05;;;;;;;0.20;0.20;;;11.00;92.50;;;;;;10529587;28;20227;-79
2024/02/29 12:47:07;;;;;;;0.20;0.20;;;11.00;92.60;;;;;;10536033;28;20265;-80
2024/02/29 12:52:10;;;;;;;0.20;0.20;;;11.00;92.80;;;;;;10537701;28;20212;-81
2024/02/29 12:57:13;;;;;;;0.30;0.30;;;11.00;93.30;;;;;;10537158;28;20207;-79
2024/02/29 13:02:16;;;;;;;0.20;0.20;;;10.90;93.50;;;;;;10537847;28;20258;-80
2024/02/29 13:07:19;;;;;;;0.20;0.20;;;11.00;92.30;;;;;;10538433;28;20273;-80
2024/02/29 13:12:22;;;;;;;0.20;0.20;;;11.00;92.40;;;;;;10536961;28;20669;-79
2024/02/29 13:17:25;;;;;;;0.20;0.20;;;11.00;92.80;;;;;;10540008;28;20200;-80
2024/02/29 13:22:27;;;;;;;0.20;0.20;;;11.00;93.10;;;;;;10535506;28;20239;-80
2024/02/29 13:27:31;;;;;;;0.20;0.20;;;11.00;92.90;;;;;;10535100;28;20207;-80
2024/02/29 13:32:34;;;;;;;0.20;0.20;;;11.10;92.70;;;;;;10536444;28;20215;-79
2024/02/29 13:37:37;;;;;;;0.20;0.20;;;11.20;92.30;;;;;;10533648;28;20191;-81
2024/02/29 13:42:40;;;;;;;0.20;0.20;;;11.40;91.90;;;;;;10520361;28;20705;-78
2024/02/29 13:47:48;;;;;;;0.20;0.20;;;11.60;92.00;;;;;;10537626;28;20204;-80
2024/02/29 13:52:52;;;;;;;0.20;0.20;;;11.80;91.70;;;;;;10537837;28;20289;-79
2024/02/29 13:57:56;;;;;;;0.30;0.30;;;11.80;91.40;;;;;;10537780;28;20199;-80
2024/02/29 14:02:58;;;;;;;0.20;0.20;;;11.90;91.60;;;;;;10536578;28;20230;-83
2024/02/29 14:08:01;;;;;;;0.20;0.20;;;11.90;91.50;;;;;;10538001;28;20192;-81
2024/02/29 14:13:06;;;;;;;0.20;0.20;;;11.80;91.90;;;;;;10537875;28;20273;-80
2024/02/29 14:18:10;;;;;;;0.30;0.30;;;11.80;92.50;;;;;;10538286;28;20203;-82
2024/02/29 14:23:12;;;;;;;0.30;0.30;;;11.80;92.20;;;;;;10537754;28;20227;-78
2024/02/29 14:28:16;;;;;;;0.20;0.20;;;11.70;92.50;;;;;;10537366;28;20595;-80
2024/02/29 14:33:19;;;;;;;0.20;0.20;;;11.70;92.90;;;;;;10538076;28;20219;-79
2024/02/29 14:38:21;;;;;;;0.30;0.30;;;11.60;92.60;;;;;;10544396;28;20576;-78
2024/02/29 14:43:25;;;;;;;0.27;0.27;;;11.80;92.30;;;;;;10545283;28;20219;-80
2024/02/29 14:48:28;;;;;;;0.20;0.20;;;11.80;92.50;;;;;;10544006;28;20188;-78
2024/02/29 14:53:30;;;;;;;0.20;0.20;;;11.80;92.70;;;;;;10542838;28;20289;-78
2024/02/29 14:58:34;;;;;;;0.20;0.20;;;11.80;92.80;;;;;;10543427;28;20196;-76
2024/02/29 15:03:36;;;;;;;0.20;0.20;;;11.80;92.90;;;;;;10542221;28;20215;-78
2024/02/29 15:08:39;;;;;;;0.30;0.30;;;11.80;93.00;;;;;;10542272;28;20682;-78
2024/02/29 15:13:43;;;;;;;0.30;0.30;;;11.80;93.20;;;;;;10544778;28;20296;-78
2024/02/29 15:18:45;;;;;;;0.27;0.27;;;11.80;93.40;;;;;;10541438;28;20196;-78
2024/02/29 15:23:47;;;;;;;0.30;0.30;;;11.70;93.40;;;;;;10524366;28;20230;-80
2024/02/29 15:28:51;;;;;;;0.30;0.30;;;11.80;93.60;;;;;;10508535;28;20798;-80
2024/02/29 15:33:54;;;;;;;0.33;0.33;;;11.70;93.90;;;;;;10541830;28;20684;-81
2024/02/29 15:38:56;;;;;;;0.30;0.30;;;11.60;94.20;;;;;;10542826;28;20204;-80
2024/02/29 15:44:00;;;;;;;0.40;0.40;;;11.50;94.30;;;;;;10520070;28;20216;-79
2024/02/29 15:49:02;;;;;;;0.30;0.30;;;11.40;95.10;;;;;;10539759;28;20777;-79
2024/02/29 15:54:05;;;;;;;0.30;0.30;;;11.30;95.10;;;;;;10542042;28;20705;-80
2024/02/29 15:59:09;;;;;;;0.30;0.30;;;11.30;95.40;;;;;;10523954;28;20249;-80
2024/02/29 16:04:11;;;;;;;0.37;0.37;;;11.30;95.50;;;;;;10544050;28;20224;-80
2024/02/29 16:09:15;;;;;;;0.30;0.30;;;11.20;95.70;;;;;;10547075;28;20244;-79
2024/02/29 16:14:19;;;;;;;0.30;0.30;;;11.10;96.00;;;;;;10531562;28;20277;-79
2024/02/29 16:19:21;;;;;;;0.30;0.30;;;11.30;94.70;;;;;;10522624;28;20241;-80
2024/02/29 16:24:24;;;;;;;0.30;0.30;;;11.30;94.50;;;;;;10539901;28;20638;-80
2024/02/29 16:29:27;;;;;;;0.30;0.30;;;11.40;94.50;;;;;;10540228;28;20211;-81
2024/02/29 16:34:30;;;;;;;0.40;0.40;;;11.50;94.20;;;;;;10539507;28;20220;-79
2024/02/29 16:39:32;;;;;;;0.30;0.30;;;11.50;94.30;;;;;;10539051;28;20216;-82
2024/02/29 16:44:36;;;;;;;0.30;0.30;;;11.50;94.10;;;;;;10540262;28;20224;-81
2024/02/29 16:49:40;;;;;;;0.30;0.30;;;11.50;94.20;;;;;;10519569;28;20204;-81
2024/02/29 16:54:43;;;;;;;0.20;0.20;;;11.50;94.20;;;;;;10538126;28;20204;-82
2024/02/29 16:59:46;;;;;;;0.30;0.30;;;11.30;94.20;;;;;;10537304;28;20200;-78
2024/02/29 17:04:49;;;;;;;0.30;0.30;;;11.30;94.30;;;;;;10521039;28;20700;-80
2024/02/29 17:09:54;;;;;;;0.30;0.30;;;11.20;94.50;;;;;;10543715;28;20203;-78
2024/02/29 17:14:58;;;;;;;0.30;0.30;;;11.10;94.60;;;;;;10557946;22;20304;-76
2024/02/29 17:20:01;;;;;;;0.30;0.30;;;11.00;94.50;;;;;;10530036;28;20191;-76
2024/02/29 17:25:04;;;;;;;0.40;0.40;;;10.90;94.50;;;;;;10533548;28;20223;-76
2024/02/29 17:30:11;;;;;;;0.30;0.30;;;10.80;94.60;;;;;;10533236;28;20204;-76
2024/02/29 17:35:15;;;;;;;0.30;0.30;;;10.70;94.70;;;;;;10515303;28;20774;-76
2024/02/29 17:40:19;;;;;;;0.40;0.40;;;10.60;94.80;;;;;;10509783;28;20196;-76
2024/02/29 17:45:22;;;;;;;0.30;0.30;;;10.50;95.10;;;;;;10526414;28;20219;-76
2024/02/29 17:50:25;;;;;;;0.30;0.30;;;10.40;94.90;;;;;;10496864;28;20207;-75
2024/02/29 17:55:28;;;;;;;0.30;0.30;;;10.40;95.10;;;;;;10518796;28;20688;-76
2024/02/29 18:00:31;;;;;;;0.30;0.30;;;10.30;95.00;;;;;;10520002;28;20270;-76
2024/02/29 18:05:34;;;;;;;0.43;0.43;;;10.20;95.10;;;;;;10505816;28;20223;-76
2024/02/29 18:10:36;;;;;;;0.40;0.40;;;10.10;95.20;;;;;;10512491;28;20206;-76
2024/02/29 18:15:40;;;;;;;0.40;0.40;;;10.00;95.30;;;;;;10520600;28;20228;-76
2024/02/29 18:20:42;;;;;;;0.40;0.40;;;10.00;95.40;;;;;;10502364;28;20207;-75
2024/02/29 18:25:46;;;;;;;0.40;0.40;;;9.90;96.00;;;;;;10523994;28;20224;-76
2024/02/29 18:30:49;;;;;;;0.40;0.40;;;9.90;96.00;;;;;;10501246;28;20221;-76
2024/02/29 18:35:52;;;;;;;0.40;0.40;;;9.80;96.10;;;;;;10517683;28;20219;-75
2024/02/29 18:40:54;;;;;;;0.30;0.30;;;9.70;96.30;;;;;;10519093;28;20196;-75
2024/02/29 18:45:58;;;;;;;0.30;0.30;;;9.70;96.30;;;;;;10517603;28;20231;-76
2024/02/29 18:51:01;;;;;;;0.30;0.30;;;9.50;96.40;;;;;;10505098;28;20203;-76
2024/02/29 18:56:04;;;;;;;0.30;0.30;;;9.50;96.40;;;;;;10537019;28;20212;-75
2024/02/29 19:01:09;;;;;;;0.27;0.27;;;9.40;96.60;;;;;;10532204;28;20212;-76
2024/02/29 19:06:12;;;;;;;0.30;0.30;;;9.30;96.60;;;;;;10507650;28;20277;-76
2024/02/29 19:11:15;;;;;;;0.30;0.30;;;9.20;96.60;;;;;;10519741;28;20606;-76
2024/02/29 19:16:19;;;;;;;0.30;0.30;;;9.20;96.80;;;;;;10510664;28;20228;-77
2024/02/29 19:21:21;;;;;;;0.30;0.30;;;9.20;96.90;;;;;;10523837;28;20196;-75
2024/02/29 19:26:25;;;;;;;0.30;0.30;;;9.10;96.80;;;;;;10511013;28;20212;-77
2024/02/29 19:31:28;;;;;;;0.30;0.30;;;9.10;96.90;;;;;;10531607;28;20192;-76
2024/02/29 19:36:31;;;;;;;0.40;0.40;;;9.00;96.80;;;;;;10536542;28;20225;-78
2024/02/29 19:41:33;;;;;;;0.30;0.30;;;8.90;97.20;;;;;;10531905;28;20692;-78
2024/02/29 19:46:42;;;;;;;0.40;0.40;;;8.90;96.90;;;;;;10518824;28;20269;-77
2024/02/29 19:51:45;;;;;;;0.30;0.30;;;8.80;97.10;;;;;;10525451;28;20250;-78
2024/02/29 19:56:47;;;;;;;0.37;0.37;;;8.70;97.10;;;;;;10521150;28;20223;-78
2024/02/29 20:01:51;;;;;;;0.30;0.30;;;8.70;97.30;;;;;;10525379;28;20608;-78
2024/02/29 20:06:54;;;;;;;0.30;0.30;;;8.70;97.40;;;;;;10531467;28;20228;-77
2024/02/29 20:11:56;;;;;;;0.30;0.30;;;8.70;97.50;;;;;;10513629;28;20310;-78
2024/02/29 20:17:00;;;;;;;0.40;0.40;;;8.70;97.40;;;;;;10521018;28;20234;-78
2024/02/29 20:22:03;;;;;;;0.40;0.40;;;8.70;97.30;;;;;;10529609;28;20758;-79
2024/02/29 20:27:05;;;;;;;0.30;0.30;;;8.60;97.40;;;;;;10529505;28;20681;-77
2024/02/29 20:32:12;;;;;;;0.30;0.30;;;8.60;97.40;;;;;;10510912;28;20681;-77
2024/02/29 20:37:14;;;;;;;0.40;0.40;;;8.60;97.50;;;;;;10520926;28;20254;-78
2024/02/29 20:42:17;;;;;;;0.40;0.40;;;8.60;97.60;;;;;;10512127;28;20669;-76
2024/02/29 20:47:23;;;;;;;0.40;0.40;;;8.60;97.10;;;;;;10529770;28;20212;-76
2024/02/29 20:52:26;;;;;;;0.30;0.30;;;8.50;97.20;;;;;;10501671;28;20288;-77
2024/02/29 20:57:29;;;;;;;0.40;0.40;;;8.40;97.30;;;;;;10525291;28;20196;-77
2024/02/29 21:02:32;;;;;;;0.30;0.30;;;8.30;97.40;;;;;;10515081;28;20238;-77
2024/02/29 21:07:35;;;;;;;0.40;0.40;;;8.20;97.40;;;;;;10518642;28;20235;-80
2024/02/29 21:12:38;;;;;;;0.30;0.30;;;8.10;97.50;;;;;;10525488;28;20277;-76
2024/02/29 21:17:41;;;;;;;0.30;0.30;;;8.10;97.50;;;;;;10523067;28;20665;-78
2024/02/29 21:22:44;;;;;;;0.40;0.40;;;8.00;97.60;;;;;;10530885;28;20223;-79
2024/02/29 21:27:46;;;;;;;0.30;0.30;;;8.00;97.70;;;;;;10519868;28;20223;-77
2024/02/29 21:32:50;;;;;;;0.33;0.33;;;7.90;97.60;;;;;;10518146;28;20569;-77
2024/02/29 21:37:53;;;;;;;0.40;0.40;;;7.90;97.70;;;;;;10514842;28;20188;-78
2024/02/29 21:42:55;;;;;;;0.40;0.40;;;7.80;97.80;;;;;;10521330;28;20220;-77
2024/02/29 21:47:59;;;;;;;0.40;0.40;;;7.80;97.90;;;;;;10512671;28;20277;-78
2024/02/29 21:53:01;;;;;;;0.40;0.40;;;7.80;97.80;;;;;;10523143;28;20219;-76
2024/02/29 21:58:04;;;;;;;0.40;0.40;;;7.70;98.10;;;;;;10516509;28;20200;-76
2024/02/29 22:03:08;;;;;;;0.40;0.40;;;7.70;98.10;;;;;;10526835;28;20230;-78
2024/02/29 22:08:10;;;;;;;0.40;0.40;;;7.70;98.20;;;;;;10519293;28;20220;-79
2024/02/29 22:13:12;;;;;;;0.30;0.30;;;7.60;98.00;;;;;;10520042;28;20658;-78
2024/02/29 22:18:16;;;;;;;0.33;0.33;;;7.60;98.10;;;;;;10507154;28;20218;-76
2024/02/29 22:23:19;;;;;;;0.37;0.37;;;7.60;98.20;;;;;;10515626;28;20223;-77
2024/02/29 22:28:21;;;;;;;0.40;0.40;;;7.60;98.10;;;;;;10513894;28;20215;-77
2024/02/29 22:33:25;;;;;;;0.40;0.40;;;7.50;97.90;;;;;;10516911;28;20245;-77
2024/02/29 22:38:27;;;;;;;0.30;0.30;;;7.40;97.90;;;;;;10525697;28;20203;-78
2024/02/29 22:43:29;;;;;;;0.40;0.40;;;7.30;97.90;;;;;;10523505;28;20224;-77
2024/02/29 22:48:33;;;;;;;0.40;0.40;;;7.20;98.10;;;;;;10498844;28;20200;-77
2024/02/29 22:53:36;;;;;;;0.40;0.40;;;7.10;98.30;;;;;;10518836;28;20689;-76
2024/02/29 22:58:38;;;;;;;0.40;0.40;;;7.10;98.30;;;;;;10528815;28;20661;-78
2024/02/29 23:03:42;;;;;;;0.40;0.40;;;7.00;98.30;;;;;;10525248;28;20615;-77
2024/02/29 23:08:45;;;;;;;0.40;0.40;;;7.00;98.50;;;;;;10529913;28;20269;-75
2024/02/29 23:13:47;;;;;;;0.40;0.40;;;7.00;98.50;;;;;;10515002;28;20224;-77
2024/02/29 23:18:51;;;;;;;0.50;0.50;;;6.90;98.70;;;;;;10561161;22;20641;-80
2024/02/29 23:23:53;;;;;;;0.50;0.50;;;7.00;98.60;;;;;;10567613;28;20207;-79
2024/02/29 23:28:58;;;;;;;0.50;0.50;;;6.90;98.50;;;;;;10567487;28;20704;-79
2024/02/29 23:34:02;;;;;;;0.57;0.57;;;6.90;98.70;;;;;;10546726;28;20225;-79
2024/02/29 23:39:04;;;;;;;0.60;0.60;;;6.90;98.80;;;;;;10524083;28;20220;-79
2024/02/29 23:44:08;;;;;;;0.60;0.60;;;6.90;98.80;;;;;;10562659;28;20261;-78
2024/02/29 23:49:11;;;;;;;0.50;0.50;;;6.90;98.90;;;;;;10553637;28;20285;-79
2024/02/29 23:54:14;;;;;;;0.60;0.60;;;6.90;99.10;;;;;;10562476;28;20203;-80
2024/02/29 23:59:16;;;;;;;0.60;0.60;;;7.00;99.20;;;;;;10550207;28;20223;-79
